KINT/INT METAR and TAF weather

Enter ICAO airport designator
Station Type Date Time Source
KINT METAR 2022/05/26 04:54 UTC NOAA

KINT 260454Z AUTO 09004KT 9SM OVC008 17/15 A3027 RMK AO2 SLP244 T01720150 402220144


Station Type Date Time Source
KINT Decoded METAR 2022/05/26 04:54 UTC NOAA

WINSTON SALEM SMITH REYNOLDS, NC, United States (KINT) 36-08N 80-14W 291M
May 26, 2022 - 12:54 AM EDT / 2022.05.26 0454 UTC
Wind: from the E (090 degrees) at 5 MPH (4 KT):0
Visibility: 9 mile(s):0
Sky conditions: overcast
Temperature: 63.0 F (17.2 C)
Dew Point: 59.0 F (15.0 C)
Relative Humidity: 86%
Pressure (altimeter): 30.27 in. Hg (1025 hPa)
ob: KINT 260454Z AUTO 09004KT 9SM OVC008 17/15 A3027 RMK AO2 SLP244 T01720150 402220144
cycle: 5

Station Type Date Time Source
KINT TAF 2022/05/26 06:42 UTC NOAA

TAF KINT 260540Z 2606/2706 09005KT 6SM BR OVC007
TEMPO 2608/2612 3SM BR OVC005
FM261600 12007KT P6SM SCT007 OVC015
FM261900 12007KT P6SM BKN020
FM270200 15009KT P6SM VCSH BKN007 OVC020

Example: see airport list